ADDS METAR Data INFO
IDs: Format: Raw Decoded Include TAF

Data at: 2300 UTC 21 Feb 2018

KASG 212210Z 02005G11KT 3/4SM -RA BR OVC003 M01/01 A3042
KASG 212148Z 02009KT 1 1/2SM BR OVC003 M01/01 A3040
KASG 212048Z 05008G13KT 2SM BR OVC004 M01/01 A3035
KASG 212037Z 04009G16KT 3SM BR OVC004 M01/01 A3033
KASG 211948Z 02009G16KT 6SM BR OVC005 M01/01 A3036
KASG 211848Z 03007G18KT 6SM BR OVC006 M01/01 A3034
KASG 211748Z 03010KT 7SM OVC006 M01/01 A3037
KASG 211648Z 05010KT 7SM OVC006 M01/01 A3040
KASG 211548Z 06010G15KT 6SM BR OVC005 M02/02 A3041
KASG 201448Z 19018G35KT 8SM SCT020 BKN039 OVC110 19/17 A2992
KASG 211348Z 02009KT 3SM OVC004 M02/02 A3037
KASG 211248Z 05008KT 3SM OVC004 M02/02 A3038
KASG 201448Z 19018G35KT 8SM SCT020 BKN039 OVC110 19/17 A2992
KASG 201348Z 19019G29KT 8SM BKN024 OVC032 20/17 A2991
KASG 201248Z 19020G29KT 10SM BKN023 OVC029 20/17 A2986
KASG 201148Z 18017G24KT 10SM OVC020 20/18 A2988